Time;durP1;ratioP1;P1;durP2;ratioP2;P2;SDS_P1;SDS_P2;PMS_P1;PMS_P2;Temp;Humidity;BMP_temperature;BMP_pressure;BME280_temperature;BME280_humidity;BME280_pressure;Samples;Min_cycle;Max_cycle;Signal;HPM_P1;HPM_P2
2023/07/14 00:00:13;;;;;;;;;;;22.50;52.40;;;;;;5039864;28;19921;-56
2023/07/14 00:02:41;;;;;;;;;;;22.50;52.40;;;;;;5039331;28;19924;-56
2023/07/14 00:05:12;;;;;;;;;;;22.50;52.30;;;;;;5039904;28;19921;-57
2023/07/14 00:07:41;;;;;;;;;;;22.50;52.30;;;;;;5057072;28;19920;-60
2023/07/14 00:10:12;;;;;;;;;;;22.50;52.30;;;;;;5039205;28;19921;-54
2023/07/14 00:12:39;;;;;;;;;;;22.50;52.30;;;;;;5039913;28;19921;-57
2023/07/14 00:15:06;;;;;;;;;;;22.50;52.30;;;;;;5057305;28;19927;-57
2023/07/14 00:17:33;;;;;;;;;;;22.50;52.90;;;;;;5039950;28;19921;-58
2023/07/14 00:20:00;;;;;;;;;;;22.50;52.30;;;;;;5039481;28;19925;-56
2023/07/14 00:22:27;;;;;;;;;;;22.50;52.30;;;;;;5038522;28;19928;-56
2023/07/14 00:24:55;;;;;;;;;;;22.50;52.30;;;;;;5056952;28;19927;-56
2023/07/14 00:27:24;;;;;;;;;;;22.50;52.20;;;;;;5056441;28;19921;-57
2023/07/14 00:29:52;;;;;;;;;;;22.50;52.20;;;;;;5038604;28;19975;-56
2023/07/14 00:32:19;;;;;;;;;;;22.50;52.20;;;;;;5039548;28;20019;-56
2023/07/14 00:34:46;;;;;;;;;;;22.50;52.20;;;;;;5039998;28;19925;-58
2023/07/14 00:37:13;;;;;;;;;;;22.50;52.40;;;;;;5039463;28;19921;-57
2023/07/14 00:39:41;;;;;;;;;;;22.50;52.10;;;;;;5056606;28;19924;-58
2023/07/14 00:42:11;;;;;;;;;;;22.50;52.10;;;;;;5037792;28;19924;-56
2023/07/14 00:44:38;;;;;;;;;;;22.50;52.00;;;;;;5039269;28;19921;-57
2023/07/14 00:47:05;;;;;;;;;;;22.40;51.90;;;;;;5039303;28;19921;-58
2023/07/14 00:49:32;;;;;;;;;;;22.50;52.00;;;;;;5055511;28;19964;-57
2023/07/14 00:52:00;;;;;;;;;;;22.50;51.90;;;;;;5037566;28;19931;-57
2023/07/14 00:54:28;;;;;;;;;;;22.50;51.90;;;;;;5039536;28;19932;-56
2023/07/14 00:56:55;;;;;;;;;;;22.50;51.80;;;;;;5039197;28;19920;-58
2023/07/14 00:59:26;;;;;;;;;;;22.40;51.70;;;;;;5056673;28;19921;-56
2023/07/14 01:02:08;;;;;;;;;;;22.50;51.80;;;;;;5040913;28;19924;-53
2023/07/14 01:04:35;;;;;;;;;;;22.40;51.60;;;;;;5023489;28;19921;-57
2023/07/14 01:07:04;;;;;;;;;;;22.40;51.60;;;;;;5038642;28;19920;-57
2023/07/14 01:09:31;;;;;;;;;;;22.40;51.60;;;;;;5039253;28;19924;-57
2023/07/14 01:11:57;;;;;;;;;;;22.40;51.60;;;;;;5038987;28;19921;-58
2023/07/14 01:14:26;;;;;;;;;;;22.40;51.60;;;;;;5037818;28;19921;-56
2023/07/14 01:16:54;;;;;;;;;;;22.40;51.60;;;;;;5038532;28;19921;-56
2023/07/14 01:19:22;;;;;;;;;;;22.40;51.60;;;;;;5039313;28;19921;-56
2023/07/14 01:21:49;;;;;;;;;;;22.40;51.60;;;;;;5056787;28;19931;-55
2023/07/14 01:24:17;;;;;;;;;;;22.40;51.60;;;;;;5039567;28;19921;-57
2023/07/14 01:26:52;;;;;;;;;;;22.40;51.60;;;;;;5038423;28;19921;-57
2023/07/14 01:29:19;;;;;;;;;;;22.40;51.50;;;;;;5039087;28;20019;-56
2023/07/14 01:31:47;;;;;;;;;;;22.40;51.50;;;;;;5055488;28;19921;-57
2023/07/14 01:34:13;;;;;;;;;;;22.40;51.50;;;;;;5055440;28;19944;-58
2023/07/14 01:36:40;;;;;;;;;;;22.40;52.10;;;;;;5036941;28;19927;-57
2023/07/14 01:39:08;;;;;;;;;;;22.40;51.50;;;;;;5036827;28;19928;-58
2023/07/14 01:41:35;;;;;;;;;;;22.40;51.50;;;;;;5036595;28;19921;-57
2023/07/14 01:44:04;;;;;;;;;;;22.40;51.50;;;;;;5037500;28;19971;-58
2023/07/14 01:46:31;;;;;;;;;;;22.40;51.50;;;;;;5036596;28;19955;-57
2023/07/14 01:49:03;;;;;;;;;;;22.40;51.50;;;;;;5035859;28;19928;-58
2023/07/14 01:51:31;;;;;;;;;;;22.40;51.50;;;;;;5036747;28;19921;-57
2023/07/14 01:54:00;;;;;;;;;;;22.40;51.50;;;;;;5036656;28;20015;-57
2023/07/14 01:56:27;;;;;;;;;;;22.40;51.50;;;;;;5054342;28;19924;-58
2023/07/14 01:58:56;;;;;;;;;;;22.40;51.50;;;;;;5056577;28;19925;-58
2023/07/14 02:01:25;;;;;;;;;;;22.40;51.60;;;;;;5058102;28;19974;-57
2023/07/14 02:03:52;;;;;;;;;;;22.40;51.60;;;;;;5040345;28;19924;-58
2023/07/14 02:06:20;;;;;;;;;;;22.50;51.60;;;;;;5040034;28;20039;-56
2023/07/14 02:08:47;;;;;;;;;;;22.40;51.60;;;;;;5058205;28;19920;-57
2023/07/14 02:11:14;;;;;;;;;;;22.50;51.70;;;;;;5040479;28;19920;-56
2023/07/14 02:13:42;;;;;;;;;;;22.50;51.60;;;;;;5040353;28;19932;-58
2023/07/14 02:16:09;;;;;;;;;;;22.50;51.60;;;;;;5057861;28;19921;-58
2023/07/14 02:18:37;;;;;;;;;;;22.40;51.60;;;;;;5040097;28;19920;-57
2023/07/14 02:21:04;;;;;;;;;;;22.50;51.60;;;;;;5040903;28;19928;-57
2023/07/14 02:23:31;;;;;;;;;;;22.50;51.60;;;;;;5040539;28;19921;-58
2023/07/14 02:26:04;;;;;;;;;;;22.50;51.60;;;;;;5057776;28;19921;-57
2023/07/14 02:28:31;;;;;;;;;;;22.50;51.60;;;;;;5057715;28;19920;-58
2023/07/14 02:30:59;;;;;;;;;;;22.50;51.60;;;;;;5056518;28;19920;-58
2023/07/14 02:33:26;;;;;;;;;;;22.50;51.70;;;;;;5057880;28;19928;-57
2023/07/14 02:35:57;;;;;;;;;;;22.50;51.60;;;;;;5040230;28;19921;-57
2023/07/14 02:38:25;;;;;;;;;;;22.50;51.60;;;;;;5040315;28;19920;-58
2023/07/14 02:40:52;;;;;;;;;;;22.50;51.70;;;;;;5057756;28;19927;-57
2023/07/14 02:43:19;;;;;;;;;;;22.50;51.70;;;;;;5039561;28;19967;-57
2023/07/14 02:45:47;;;;;;;;;;;22.50;51.70;;;;;;5039823;28;19928;-57
2023/07/14 02:48:15;;;;;;;;;;;22.50;51.70;;;;;;5040195;28;19925;-57
2023/07/14 02:50:41;;;;;;;;;;;22.50;51.70;;;;;;5039209;28;19932;-57
2023/07/14 02:53:10;;;;;;;;;;;22.50;51.70;;;;;;5057187;28;19920;-58
2023/07/14 02:55:37;;;;;;;;;;;22.50;51.70;;;;;;5040100;28;19921;-57
2023/07/14 02:58:04;;;;;;;;;;;22.50;51.70;;;;;;5039086;28;19971;-57
2023/07/14 03:00:31;;;;;;;;;;;22.50;51.70;;;;;;5039317;28;20019;-58
2023/07/14 03:02:58;;;;;;;;;;;22.50;51.70;;;;;;5039507;28;19951;-58
2023/07/14 03:05:25;;;;;;;;;;;22.50;51.70;;;;;;5039330;28;19921;-58
2023/07/14 03:07:52;;;;;;;;;;;22.50;51.70;;;;;;5039099;28;19924;-58
2023/07/14 03:10:20;;;;;;;;;;;22.50;51.70;;;;;;5039064;28;19935;-58
2023/07/14 03:12:47;;;;;;;;;;;22.50;51.70;;;;;;5039342;28;19920;-58
2023/07/14 03:15:13;;;;;;;;;;;22.50;51.70;;;;;;5038989;28;19921;-58
2023/07/14 03:17:40;;;;;;;;;;;22.50;51.70;;;;;;5038894;28;19947;-58
2023/07/14 03:20:11;;;;;;;;;;;22.50;51.70;;;;;;5039043;28;19921;-58
2023/07/14 03:22:37;;;;;;;;;;;22.50;51.70;;;;;;5056855;28;19927;-58
2023/07/14 03:25:05;;;;;;;;;;;22.50;51.70;;;;;;5039176;28;19920;-58
2023/07/14 03:27:33;;;;;;;;;;;22.50;51.70;;;;;;5038849;28;20051;-58
2023/07/14 03:29:59;;;;;;;;;;;22.50;51.70;;;;;;5056453;28;19922;-58
2023/07/14 03:32:27;;;;;;;;;;;22.50;51.70;;;;;;5039613;28;19974;-58
2023/07/14 03:34:54;;;;;;;;;;;22.50;51.70;;;;;;5038783;28;19991;-57
2023/07/14 03:37:20;;;;;;;;;;;22.50;51.70;;;;;;5038795;28;19921;-58
2023/07/14 03:39:47;;;;;;;;;;;22.50;51.70;;;;;;5038337;28;19967;-57
2023/07/14 03:42:14;;;;;;;;;;;22.50;51.70;;;;;;5038539;28;19924;-58
2023/07/14 03:44:42;;;;;;;;;;;22.50;51.70;;;;;;5056228;28;19956;-58
2023/07/14 03:47:09;;;;;;;;;;;22.50;51.70;;;;;;5039302;28;19921;-58
2023/07/14 03:49:36;;;;;;;;;;;22.50;51.70;;;;;;5038745;28;19924;-58
2023/07/14 03:52:04;;;;;;;;;;;22.50;51.70;;;;;;5038972;28;19956;-58
2023/07/14 03:54:30;;;;;;;;;;;22.50;51.70;;;;;;5038965;28;19974;-58
2023/07/14 03:56:58;;;;;;;;;;;22.50;51.70;;;;;;5056084;28;19928;-58
2023/07/14 03:59:25;;;;;;;;;;;22.50;52.30;;;;;;5037864;28;19921;-58
2023/07/14 04:01:53;;;;;;;;;;;22.50;51.70;;;;;;5055662;28;19925;-58
2023/07/14 04:04:20;;;;;;;;;;;22.50;51.70;;;;;;5038054;28;19998;-57
2023/07/14 04:06:47;;;;;;;;;;;22.50;51.70;;;;;;5037934;28;19920;-58
2023/07/14 04:09:14;;;;;;;;;;;22.50;51.80;;;;;;5038062;28;19928;-57
2023/07/14 04:11:41;;;;;;;;;;;22.50;51.80;;;;;;5056031;28;19927;-58
2023/07/14 04:14:08;;;;;;;;;;;22.50;51.80;;;;;;5038140;28;19928;-57
2023/07/14 04:16:35;;;;;;;;;;;22.50;51.80;;;;;;5038402;28;19927;-58
2023/07/14 04:19:04;;;;;;;;;;;22.50;51.80;;;;;;5037879;28;19925;-58
2023/07/14 04:21:31;;;;;;;;;;;22.50;51.80;;;;;;5037133;28;19921;-58
2023/07/14 04:23:57;;;;;;;;;;;22.50;51.80;;;;;;5055607;28;19921;-56
2023/07/14 04:26:25;;;;;;;;;;;22.50;51.90;;;;;;5037566;28;19920;-56
2023/07/14 04:28:51;;;;;;;;;;;22.50;51.90;;;;;;5055339;28;19921;-57
2023/07/14 04:31:18;;;;;;;;;;;22.50;51.90;;;;;;5037560;28;19925;-57
2023/07/14 04:33:45;;;;;;;;;;;22.50;51.90;;;;;;5037619;28;19920;-57
2023/07/14 04:36:13;;;;;;;;;;;22.50;51.90;;;;;;5038374;28;19920;-57
2023/07/14 04:38:40;;;;;;;;;;;22.50;51.90;;;;;;5038255;28;19928;-57
2023/07/14 04:41:07;;;;;;;;;;;22.50;51.90;;;;;;5037447;28;19920;-57
2023/07/14 04:43:34;;;;;;;;;;;22.50;51.90;;;;;;5037691;28;19920;-57
2023/07/14 04:46:01;;;;;;;;;;;22.50;51.90;;;;;;5036608;28;20434;-57
2023/07/14 04:48:28;;;;;;;;;;;22.50;52.00;;;;;;5037330;28;19928;-57
2023/07/14 04:50:54;;;;;;;;;;;22.50;52.00;;;;;;5037411;28;19928;-57
2023/07/14 04:53:23;;;;;;;;;;;22.50;52.00;;;;;;5037757;28;19921;-57
2023/07/14 04:55:49;;;;;;;;;;;22.50;52.00;;;;;;5037368;28;19959;-57
2023/07/14 04:58:16;;;;;;;;;;;22.50;52.00;;;;;;5054717;28;19921;-56
2023/07/14 05:00:44;;;;;;;;;;;22.50;52.00;;;;;;5037941;28;19943;-56
2023/07/14 05:03:10;;;;;;;;;;;22.50;52.00;;;;;;5038101;28;19948;-56
2023/07/14 05:05:37;;;;;;;;;;;22.50;52.10;;;;;;5054820;28;19929;-57
2023/07/14 05:08:04;;;;;;;;;;;22.50;52.10;;;;;;5038063;28;19921;-57
2023/07/14 05:10:34;;;;;;;;;;;22.50;52.10;;;;;;5036941;28;19927;-57
2023/07/14 05:13:01;;;;;;;;;;;22.60;52.10;;;;;;5036677;28;19928;-57
2023/07/14 05:15:28;;;;;;;;;;;22.60;52.70;;;;;;5036844;28;19971;-57
2023/07/14 05:17:55;;;;;;;;;;;22.60;52.20;;;;;;5036862;28;19971;-57
2023/07/14 05:20:22;;;;;;;;;;;22.60;52.20;;;;;;5036974;28;19928;-57
2023/07/14 05:22:50;;;;;;;;;;;22.60;52.20;;;;;;5037341;28;19924;-57
2023/07/14 05:25:18;;;;;;;;;;;22.60;52.20;;;;;;5037352;28;19921;-57
2023/07/14 05:27:46;;;;;;;;;;;22.60;52.20;;;;;;5037594;28;19921;-56
2023/07/14 05:30:14;;;;;;;;;;;22.60;52.20;;;;;;5036851;28;19921;-56
2023/07/14 05:32:41;;;;;;;;;;;22.60;52.30;;;;;;5037543;28;19920;-56
2023/07/14 05:35:08;;;;;;;;;;;22.60;52.30;;;;;;5058704;28;19974;-57
2023/07/14 05:37:35;;;;;;;;;;;22.60;52.30;;;;;;5040434;28;19921;-57
2023/07/14 05:40:04;;;;;;;;;;;22.60;52.30;;;;;;5041723;28;19921;-57
2023/07/14 05:42:30;;;;;;;;;;;22.60;52.30;;;;;;5040476;28;19921;-58
2023/07/14 05:44:58;;;;;;;;;;;22.60;52.40;;;;;;5058241;28;19928;-57
2023/07/14 05:47:25;;;;;;;;;;;22.60;52.30;;;;;;5040434;28;19920;-57
2023/07/14 05:49:52;;;;;;;;;;;22.60;52.40;;;;;;5040374;28;19928;-57
2023/07/14 05:52:19;;;;;;;;;;;22.60;52.40;;;;;;5040537;28;19928;-57
2023/07/14 05:54:47;;;;;;;;;;;22.60;52.40;;;;;;5058381;28;19928;-57
2023/07/14 05:57:13;;;;;;;;;;;22.60;52.40;;;;;;5058401;28;19925;-57
2023/07/14 05:59:40;;;;;;;;;;;22.60;52.40;;;;;;5040458;28;19921;-57
2023/07/14 06:02:09;;;;;;;;;;;22.60;52.40;;;;;;5040630;28;19920;-57
2023/07/14 06:04:36;;;;;;;;;;;22.60;52.50;;;;;;5058603;28;19921;-57
2023/07/14 06:07:03;;;;;;;;;;;22.60;52.50;;;;;;5041262;28;19920;-57
2023/07/14 06:09:32;;;;;;;;;;;22.60;52.50;;;;;;5040616;28;19920;-57
2023/07/14 06:11:59;;;;;;;;;;;22.60;52.50;;;;;;5058342;28;19921;-57
2023/07/14 06:14:26;;;;;;;;;;;22.60;53.20;;;;;;5041043;28;19920;-57
2023/07/14 06:16:53;;;;;;;;;;;22.60;52.50;;;;;;5058295;28;19925;-57
2023/07/14 06:19:21;;;;;;;;;;;22.60;52.60;;;;;;5057944;28;19963;-57
2023/07/14 06:21:48;;;;;;;;;;;22.60;52.60;;;;;;5040154;28;19936;-56
2023/07/14 06:24:15;;;;;;;;;;;22.60;52.60;;;;;;5040227;28;19920;-57
2023/07/14 06:26:42;;;;;;;;;;;22.60;52.60;;;;;;5023202;28;19932;-57
2023/07/14 06:29:09;;;;;;;;;;;22.60;52.60;;;;;;5040017;28;19925;-57
2023/07/14 06:31:35;;;;;;;;;;;22.70;52.70;;;;;;5039139;28;19928;-58
2023/07/14 06:34:03;;;;;;;;;;;22.70;52.70;;;;;;5039913;28;19927;-58
2023/07/14 06:36:31;;;;;;;;;;;22.70;52.70;;;;;;5039265;28;19921;-56
2023/07/14 06:38:58;;;;;;;;;;;22.70;52.70;;;;;;5039275;28;19921;-56
2023/07/14 06:41:25;;;;;;;;;;;22.70;52.70;;;;;;5039046;28;19924;-57
2023/07/14 06:43:52;;;;;;;;;;;22.60;52.60;;;;;;5039180;28;19921;-57
2023/07/14 06:46:19;;;;;;;;;;;22.70;52.70;;;;;;5056128;28;19920;-57
2023/07/14 06:48:46;;;;;;;;;;;22.70;52.80;;;;;;5039330;28;19927;-57
2023/07/14 06:51:13;;;;;;;;;;;22.70;52.80;;;;;;5039511;28;19920;-57
2023/07/14 06:53:42;;;;;;;;;;;22.70;52.80;;;;;;5039360;28;19920;-57
2023/07/14 06:56:11;;;;;;;;;;;22.70;52.80;;;;;;5039394;28;19932;-57
2023/07/14 06:58:41;;;;;;;;;;;22.70;52.80;;;;;;5057029;28;19928;-56
2023/07/14 07:01:08;;;;;;;;;;;22.70;52.80;;;;;;5039266;28;19921;-54
2023/07/14 07:03:36;;;;;;;;;;;22.70;52.80;;;;;;5038956;28;19931;-57
2023/07/14 07:06:03;;;;;;;;;;;22.70;52.80;;;;;;5056577;28;19921;-58
2023/07/14 07:08:31;;;;;;;;;;;22.70;52.70;;;;;;5038519;28;19925;-58
2023/07/14 07:10:59;;;;;;;;;;;22.70;52.70;;;;;;5056804;28;19928;-57
2023/07/14 07:13:26;;;;;;;;;;;22.70;52.70;;;;;;5039131;28;19924;-58
2023/07/14 07:15:53;;;;;;;;;;;22.80;52.80;;;;;;5038819;28;19928;-59
2023/07/14 07:18:20;;;;;;;;;;;22.80;52.80;;;;;;5038967;28;19928;-58
2023/07/14 07:20:48;;;;;;;;;;;22.80;52.80;;;;;;5056356;28;19928;-58
2023/07/14 07:23:15;;;;;;;;;;;22.80;52.80;;;;;;5039111;28;19975;-57
2023/07/14 07:25:47;;;;;;;;;;;22.80;52.80;;;;;;5038379;28;20008;-57
2023/07/14 07:28:16;;;;;;;;;;;22.80;52.70;;;;;;5038108;28;19921;-57
2023/07/14 07:30:44;;;;;;;;;;;22.80;52.70;;;;;;5038228;28;19920;-58
2023/07/14 07:33:11;;;;;;;;;;;22.80;52.70;;;;;;5038256;28;19921;-57
2023/07/14 07:35:38;;;;;;;;;;;22.80;52.70;;;;;;5038744;28;19988;-58
2023/07/14 07:38:04;;;;;;;;;;;22.80;52.70;;;;;;5038168;28;19921;-58
2023/07/14 07:40:32;;;;;;;;;;;22.80;52.60;;;;;;5038485;28;20355;-58
2023/07/14 07:43:01;;;;;;;;;;;22.80;52.60;;;;;;5056165;28;19928;-57
2023/07/14 07:45:29;;;;;;;;;;;22.80;53.20;;;;;;5038030;28;19921;-58
2023/07/14 07:47:56;;;;;;;;;;;22.90;52.70;;;;;;5055216;28;19925;-58
2023/07/14 07:50:23;;;;;;;;;;;22.80;52.50;;;;;;5038155;28;19921;-57
2023/07/14 07:52:50;;;;;;;;;;;22.80;52.50;;;;;;5055988;28;19928;-58
2023/07/14 07:55:17;;;;;;;;;;;22.90;52.60;;;;;;5038434;28;19976;-59
2023/07/14 07:57:47;;;;;;;;;;;22.90;52.50;;;;;;5038530;28;19992;-58
2023/07/14 08:00:15;;;;;;;;;;;22.90;52.50;;;;;;5037755;28;19928;-58
2023/07/14 08:02:43;;;;;;;;;;;22.90;52.50;;;;;;5037658;28;19921;-59
2023/07/14 08:05:11;;;;;;;;;;;22.90;52.40;;;;;;5037914;28;19920;-59
2023/07/14 08:07:38;;;;;;;;;;;22.90;52.40;;;;;;5038460;28;19921;-58
2023/07/14 08:10:05;;;;;;;;;;;22.90;52.40;;;;;;5037455;28;20015;-57
2023/07/14 08:12:32;;;;;;;;;;;22.90;52.40;;;;;;5037187;28;19921;-57
2023/07/14 08:14:59;;;;;;;;;;;22.90;52.40;;;;;;5037619;28;20381;-57
2023/07/14 08:17:26;;;;;;;;;;;22.90;52.40;;;;;;5036960;28;19951;-57
2023/07/14 08:19:55;;;;;;;;;;;22.90;52.30;;;;;;5036938;28;19920;-57
2023/07/14 08:22:22;;;;;;;;;;;22.90;52.20;;;;;;5037436;28;19927;-56
2023/07/14 08:24:49;;;;;;;;;;;22.90;52.00;;;;;;5037544;28;19920;-57
2023/07/14 08:27:16;;;;;;;;;;;22.90;51.80;;;;;;5036630;28;19978;-58
2023/07/14 08:29:43;;;;;;;;;;;22.80;51.60;;;;;;5036566;28;19921;-58
2023/07/14 08:32:10;;;;;;;;;;;22.80;51.60;;;;;;5036754;28;19999;-58
2023/07/14 08:34:37;;;;;;;;;;;22.80;51.50;;;;;;5036644;28;19976;-58
2023/07/14 08:37:05;;;;;;;;;;;22.80;51.30;;;;;;5036206;28;20275;-58
2023/07/14 08:39:32;;;;;;;;;;;22.80;51.30;;;;;;5036929;28;19976;-58
2023/07/14 08:42:00;;;;;;;;;;;22.80;51.30;;;;;;5037228;28;20012;-59
2023/07/14 08:44:35;;;;;;;;;;;22.80;51.20;;;;;;5036940;28;19920;-58
2023/07/14 08:47:03;;;;;;;;;;;22.70;51.10;;;;;;5036952;28;19924;-58
2023/07/14 08:49:31;;;;;;;;;;;22.70;51.00;;;;;;5035996;28;19936;-59
2023/07/14 08:51:59;;;;;;;;;;;22.70;51.00;;;;;;5036234;28;19920;-59
2023/07/14 08:54:28;;;;;;;;;;;22.70;50.80;;;;;;5036757;28;19921;-58
2023/07/14 08:56:55;;;;;;;;;;;22.70;50.60;;;;;;5054119;28;19943;-58
2023/07/14 08:59:26;;;;;;;;;;;22.70;50.50;;;;;;5036861;28;19932;-58
2023/07/14 09:01:54;;;;;;;;;;;22.70;50.60;;;;;;5036862;28;20019;-60
2023/07/14 09:04:25;;;;;;;;;;;22.70;50.60;;;;;;5036621;28;19966;-58
2023/07/14 09:06:52;;;;;;;;;;;22.70;50.60;;;;;;5037087;28;20057;-59
2023/07/14 09:09:21;;;;;;;;;;;22.70;50.60;;;;;;5053649;28;20015;-59
2023/07/14 09:11:52;;;;;;;;;;;22.70;50.60;;;;;;5035945;28;19971;-58
2023/07/14 09:14:23;;;;;;;;;;;22.70;50.40;;;;;;5053861;28;19975;-58
2023/07/14 09:16:52;;;;;;;;;;;22.70;50.30;;;;;;5035643;28;19921;-58
2023/07/14 09:19:20;;;;;;;;;;;22.60;50.10;;;;;;5036738;28;19960;-58
2023/07/14 09:21:49;;;;;;;;;;;22.60;50.10;;;;;;5036299;28;19925;-58
2023/07/14 09:24:16;;;;;;;;;;;22.70;50.50;;;;;;5036259;28;19928;-58
2023/07/14 09:26:45;;;;;;;;;;;22.60;51.00;;;;;;5036185;28;19921;-59
2023/07/14 09:29:14;;;;;;;;;;;22.70;50.60;;;;;;5036179;28;19928;-58
2023/07/14 09:31:44;;;;;;;;;;;22.70;50.60;;;;;;5035950;28;19920;-58
2023/07/14 09:34:15;;;;;;;;;;;22.70;50.60;;;;;;5036559;28;19921;-58
2023/07/14 09:36:42;;;;;;;;;;;22.70;50.50;;;;;;5036027;28;19982;-59
2023/07/14 09:39:12;;;;;;;;;;;22.70;50.50;;;;;;5036179;28;19921;-58
2023/07/14 09:41:39;;;;;;;;;;;22.70;50.40;;;;;;5036178;28;20005;-58
2023/07/14 09:44:05;;;;;;;;;;;22.70;50.40;;;;;;5035653;28;19921;-57
2023/07/14 09:46:37;;;;;;;;;;;22.70;50.40;;;;;;5036112;28;19974;-58
2023/07/14 09:49:05;;;;;;;;;;;22.70;50.50;;;;;;5036211;28;19920;-58
2023/07/14 09:51:32;;;;;;;;;;;22.70;50.60;;;;;;5053709;28;19928;-58
2023/07/14 09:53:59;;;;;;;;;;;22.70;50.60;;;;;;5035722;28;19921;-57
2023/07/14 09:56:27;;;;;;;;;;;22.70;50.60;;;;;;5053570;28;20015;-58
2023/07/14 09:58:54;;;;;;;;;;;22.70;50.60;;;;;;5035825;28;20292;-58
2023/07/14 10:01:21;;;;;;;;;;;22.70;50.70;;;;;;5036016;28;19928;-58
2023/07/14 10:03:51;;;;;;;;;;;22.70;50.70;;;;;;5035657;28;19928;-58
2023/07/14 10:06:21;;;;;;;;;;;22.80;50.90;;;;;;5036108;28;19927;-58
2023/07/14 10:08:54;;;;;;;;;;;22.70;50.70;;;;;;5036785;28;20015;-57
2023/07/14 10:11:24;;;;;;;;;;;22.80;50.80;;;;;;5036665;28;20019;-58
2023/07/14 10:13:54;;;;;;;;;;;22.80;50.80;;;;;;5036257;28;19925;-58
2023/07/14 10:16:22;;;;;;;;;;;22.80;50.80;;;;;;5053223;28;19947;-59
2023/07/14 10:18:51;;;;;;;;;;;22.80;50.90;;;;;;5036254;28;19921;-59
2023/07/14 10:21:23;;;;;;;;;;;22.80;50.90;;;;;;5039172;28;19931;-56
2023/07/14 10:24:05;;;;;;;;;;;22.80;50.80;;;;;;5039655;28;19931;-58
2023/07/14 10:26:33;;;;;;;;;;;22.80;50.90;;;;;;5037226;28;19920;-59
2023/07/14 10:29:00;;;;;;;;;;;22.80;50.90;;;;;;5039212;28;20034;-58
2023/07/14 10:31:30;;;;;;;;;;;22.90;51.00;;;;;;5039005;28;19924;-58
2023/07/14 10:34:02;;;;;;;;;;;22.90;51.10;;;;;;5039469;28;19988;-58
2023/07/14 10:36:31;;;;;;;;;;;22.90;51.10;;;;;;5039016;28;19921;-58
2023/07/14 10:38:58;;;;;;;;;;;22.90;51.20;;;;;;5039211;28;19939;-58
2023/07/14 10:41:26;;;;;;;;;;;22.90;51.20;;;;;;5038821;28;19963;-58
2023/07/14 10:43:54;;;;;;;;;;;22.90;51.20;;;;;;5038950;28;19927;-58
2023/07/14 10:46:22;;;;;;;;;;;22.90;51.20;;;;;;5039474;28;19983;-58
2023/07/14 10:48:50;;;;;;;;;;;22.90;51.30;;;;;;5056761;28;19928;-59
2023/07/14 10:51:26;;;;;;;;;;;23.00;51.40;;;;;;5056568;28;19931;-58
2023/07/14 10:54:03;;;;;;;;;;;23.00;51.40;;;;;;5039172;28;19921;-58
2023/07/14 10:56:31;;;;;;;;;;;23.00;51.40;;;;;;5039648;28;19970;-58
2023/07/14 10:58:59;;;;;;;;;;;23.10;52.10;;;;;;5040639;28;19920;-58
2023/07/14 11:01:30;;;;;;;;;;;23.00;51.40;;;;;;5038385;28;19927;-58
2023/07/14 11:03:58;;;;;;;;;;;23.00;51.50;;;;;;5038645;28;19939;-59
2023/07/14 11:06:28;;;;;;;;;;;23.00;51.50;;;;;;5038566;28;20023;-58
2023/07/14 11:08:55;;;;;;;;;;;23.00;51.50;;;;;;5038509;28;19966;-59
2023/07/14 11:11:24;;;;;;;;;;;23.00;51.50;;;;;;5038542;28;19931;-58
2023/07/14 11:13:55;;;;;;;;;;;23.10;51.60;;;;;;5056243;28;19929;-59
2023/07/14 11:16:23;;;;;;;;;;;23.00;51.50;;;;;;5038721;28;19921;-58
2023/07/14 11:18:52;;;;;;;;;;;23.00;51.50;;;;;;5038324;28;19931;-59
2023/07/14 11:21:22;;;;;;;;;;;23.10;51.60;;;;;;5038552;28;19920;-58
2023/07/14 11:23:52;;;;;;;;;;;23.10;51.60;;;;;;5038100;28;19920;-59
2023/07/14 11:26:20;;;;;;;;;;;23.10;51.60;;;;;;5038255;28;19956;-58
2023/07/14 11:28:51;;;;;;;;;;;23.10;51.70;;;;;;5037812;28;19929;-58
2023/07/14 11:31:20;;;;;;;;;;;23.10;51.70;;;;;;5037668;28;20360;-59
2023/07/14 11:33:48;;;;;;;;;;;23.20;51.70;;;;;;5037642;28;20020;-58
2023/07/14 11:36:16;;;;;;;;;;;23.10;51.70;;;;;;5037592;28;19968;-58
2023/07/14 11:38:45;;;;;;;;;;;23.20;51.80;;;;;;5038046;28;19921;-59
2023/07/14 11:41:14;;;;;;;;;;;23.20;51.80;;;;;;5037873;28;19921;-58
2023/07/14 11:43:41;;;;;;;;;;;23.20;51.80;;;;;;5055358;28;19955;-58
2023/07/14 11:46:09;;;;;;;;;;;23.20;51.80;;;;;;5055185;28;20011;-58
2023/07/14 11:48:37;;;;;;;;;;;23.20;51.80;;;;;;5038083;28;20024;-59
2023/07/14 11:51:11;;;;;;;;;;;23.20;51.80;;;;;;5055228;28;19932;-58
2023/07/14 11:53:39;;;;;;;;;;;23.20;51.80;;;;;;5055720;28;19979;-59
2023/07/14 11:56:18;;;;;;;;;;;23.20;51.80;;;;;;5037457;28;19928;-58
2023/07/14 11:58:45;;;;;;;;;;;23.20;51.70;;;;;;5038002;28;19920;-57
2023/07/14 12:01:16;;;;;;;;;;;23.30;51.80;;;;;;5038231;28;19944;-59
2023/07/14 12:03:52;;;;;;;;;;;23.20;51.70;;;;;;5038297;28;19920;-58
2023/07/14 12:06:24;;;;;;;;;;;23.20;51.70;;;;;;5037524;28;19975;-58
2023/07/14 12:09:00;;;;;;;;;;;23.30;51.80;;;;;;5037756;28;19921;-57
2023/07/14 12:11:29;;;;;;;;;;;23.30;51.80;;;;;;5038431;28;20027;-59
2023/07/14 12:13:57;;;;;;;;;;;23.30;51.80;;;;;;5037690;28;19931;-59
2023/07/14 12:16:25;;;;;;;;;;;23.30;51.80;;;;;;5038316;28;19921;-59
2023/07/14 12:19:03;;;;;;;;;;;23.30;51.70;;;;;;5056769;28;19921;-59
2023/07/14 12:21:43;;;;;;;;;;;23.30;51.70;;;;;;5037462;28;19927;-58
2023/07/14 12:24:15;;;;;;;;;;;23.30;51.70;;;;;;5037987;28;19921;-58
2023/07/14 12:26:44;;;;;;;;;;;23.30;51.60;;;;;;5037588;28;19921;-60
2023/07/14 12:29:13;;;;;;;;;;;23.40;51.50;;;;;;5054917;28;19928;-61
2023/07/14 12:31:40;;;;;;;;;;;23.30;51.50;;;;;;5037913;28;19921;-59
2023/07/14 12:34:07;;;;;;;;;;;23.40;51.20;;;;;;5037817;28;19988;-61
2023/07/14 12:36:33;;;;;;;;;;;23.40;51.30;;;;;;5036675;28;19920;-61
2023/07/14 12:39:00;;;;;;;;;;;23.40;51.30;;;;;;5037323;28;19920;-62
2023/07/14 12:41:30;;;;;;;;;;;23.40;51.10;;;;;;5054390;28;19920;-62
2023/07/14 12:43:59;;;;;;;;;;;23.40;51.10;;;;;;5036130;28;19983;-60
2023/07/14 12:46:26;;;;;;;;;;;23.30;51.00;;;;;;5037112;28;19930;-60
2023/07/14 12:48:53;;;;;;;;;;;23.30;51.10;;;;;;5036598;28;19921;-61
2023/07/14 12:51:22;;;;;;;;;;;23.30;51.20;;;;;;5037162;28;19940;-59
2023/07/14 12:53:49;;;;;;;;;;;23.30;51.30;;;;;;5036976;28;20016;-59
2023/07/14 12:56:16;;;;;;;;;;;23.30;51.30;;;;;;5036396;28;19986;-59
2023/07/14 12:58:43;;;;;;;;;;;23.30;51.20;;;;;;5054331;28;19974;-59
2023/07/14 13:01:11;;;;;;;;;;;23.30;51.10;;;;;;5036496;28;19982;-58
2023/07/14 13:03:38;;;;;;;;;;;23.30;51.10;;;;;;5054055;28;19929;-60
2023/07/14 13:06:05;;;;;;;;;;;23.30;51.00;;;;;;5053681;28;19921;-59
2023/07/14 13:08:32;;;;;;;;;;;23.30;50.70;;;;;;5053951;28;19963;-60
2023/07/14 13:10:59;;;;;;;;;;;23.30;50.80;;;;;;5036313;28;20024;-59
2023/07/14 13:13:26;;;;;;;;;;;23.30;51.00;;;;;;5035898;28;19925;-59
2023/07/14 13:15:54;;;;;;;;;;;23.30;51.00;;;;;;5036129;28;19979;-60
2023/07/14 13:18:26;;;;;;;;;;;23.30;50.50;;;;;;5036399;28;19925;-59
2023/07/14 13:20:54;;;;;;;;;;;23.30;50.50;;;;;;5054191;28;19921;-58
2023/07/14 13:23:22;;;;;;;;;;;23.30;50.70;;;;;;5054287;28;19927;-58
2023/07/14 13:25:55;;;;;;;;;;;23.30;50.80;;;;;;5036138;28;19920;-59
2023/07/14 13:28:26;;;;;;;;;;;23.30;50.80;;;;;;5053954;28;19943;-60
2023/07/14 13:30:53;;;;;;;;;;;23.30;50.80;;;;;;5036896;28;19941;-59
2023/07/14 13:33:20;;;;;;;;;;;23.30;50.80;;;;;;5035819;28;19924;-59
2023/07/14 13:35:59;;;;;;;;;;;23.30;50.90;;;;;;5036580;28;19928;-58
2023/07/14 13:38:26;;;;;;;;;;;23.30;50.90;;;;;;5035871;28;19978;-59
2023/07/14 13:40:53;;;;;;;;;;;23.30;50.90;;;;;;5036017;28;19927;-58
2023/07/14 13:43:21;;;;;;;;;;;23.30;50.90;;;;;;5036414;28;19964;-59
2023/07/14 13:45:56;;;;;;;;;;;23.40;51.00;;;;;;5035640;28;19921;-59
2023/07/14 13:48:24;;;;;;;;;;;23.40;51.00;;;;;;5035816;28;19937;-56
2023/07/14 13:50:50;;;;;;;;;;;23.40;51.00;;;;;;5035534;28;19925;-59
2023/07/14 13:53:19;;;;;;;;;;;23.40;51.00;;;;;;5035971;28;19924;-59
2023/07/14 13:55:47;;;;;;;;;;;23.40;51.00;;;;;;5040027;28;19920;-59
2023/07/14 13:58:14;;;;;;;;;;;23.40;50.90;;;;;;5039427;28;19921;-58
2023/07/14 14:00:41;;;;;;;;;;;23.40;51.50;;;;;;5038989;28;19935;-59
2023/07/14 14:03:09;;;;;;;;;;;23.50;51.00;;;;;;5056962;28;19927;-60
2023/07/14 14:05:37;;;;;;;;;;;23.50;51.00;;;;;;5039803;28;19968;-59
2023/07/14 14:08:04;;;;;;;;;;;23.50;51.00;;;;;;5040014;28;19921;-59
2023/07/14 14:10:32;;;;;;;;;;;23.50;51.00;;;;;;5039735;28;19972;-59
2023/07/14 14:13:00;;;;;;;;;;;23.50;51.00;;;;;;5039459;28;19943;-58
2023/07/14 14:15:27;;;;;;;;;;;23.50;51.00;;;;;;5039704;28;20223;-58
2023/07/14 14:17:56;;;;;;;;;;;23.50;51.00;;;;;;5039127;28;19921;-59
2023/07/14 14:20:23;;;;;;;;;;;23.50;51.00;;;;;;5039768;28;19927;-58